CheckWX is a tool to help pilots better visualize weather data.  It is not intended as a substitute for an official pre-flight weather briefing.

14:14:43 UTC

KCJR METAR
Culpeper Regional Airport
Culpeper, Virginia, USA
Current

20 mins ago

KCJR 221355Z AUTO 34007KT 310V010 10SM CLR 16/07 A3018 RMK AO2 T01570065
Observed
Apr-22 @ 13:55 UTC
Wind
  • 340° at 7 KTS
Visibility
10 SM
Flight Rules
VFR
Cloud Levels
  • Clear skies
Temperature
16°C / 61°F
Dewpoint
C / 45°F
Humidity
55%
Altimeter
30.18" Hg
Pressure
1022.02 hPa
Previous

40 mins ago

KCJR 221335Z AUTO 36006KT 10SM CLR 14/06 A3018 RMK AO2 T01430062
Observed
Apr-22 @ 13:35 UTC
Wind
  • 360° at 6 KTS
Visibility
10 SM
Flight Rules
VFR
Cloud Levels
  • Clear skies
Temperature
14°C / 57°F
Dewpoint
C / 43°F
Humidity
59%
Altimeter
30.18" Hg
Pressure
1022.02 hPa
Previous

60 mins ago

KCJR 221315Z AUTO 36008KT 10SM CLR 14/06 A3018 RMK AO2 T01400057
Observed
Apr-22 @ 13:15 UTC
Wind
  • 360° at 8 KTS
Visibility
10 SM
Flight Rules
VFR
Cloud Levels
  • Clear skies
Temperature
14°C / 57°F
Dewpoint
C / 43°F
Humidity
59%
Altimeter
30.18" Hg
Pressure
1022.02 hPa